createdAt,value
2023-04-15T00:00:17.733Z,101197.81
2023-04-15T00:05:40.289Z,101202.91
2023-04-15T00:11:03.212Z,101201.13
2023-04-15T00:16:24.062Z,101196.81
2023-04-15T00:21:44.339Z,101189.09
2023-04-15T00:27:05.566Z,101185.63
2023-04-15T00:32:26.018Z,101183.91
2023-04-15T00:37:46.530Z,101180.50
2023-04-15T00:43:07.269Z,101177.97
2023-04-15T00:48:28.334Z,101183.97
2023-04-15T00:53:48.776Z,101172.88
2023-04-15T00:59:10.288Z,101179.72
2023-04-15T01:04:32.672Z,101177.16
2023-04-15T01:09:53.496Z,101178.03
2023-04-15T01:15:15.036Z,101176.34
2023-04-15T01:20:36.343Z,101172.16
2023-04-15T01:25:58.453Z,101173.06
2023-04-15T01:31:18.937Z,101167.13
2023-04-15T01:36:39.322Z,101167.97
2023-04-15T01:42:01.467Z,101174.81
2023-04-15T01:47:23.456Z,101170.56
2023-04-15T01:52:45.192Z,101175.69
2023-04-15T01:58:07.526Z,101163.75
2023-04-15T02:03:29.592Z,101158.63
2023-04-15T02:08:51.659Z,101164.59
2023-04-15T02:14:13.263Z,101156.91
2023-04-15T02:19:36.022Z,101152.66
2023-04-15T02:24:58.765Z,101154.38
2023-04-15T02:30:21.345Z,101158.69
2023-04-15T02:35:45.508Z,101158.75
2023-04-15T02:41:07.212Z,101158.75
2023-04-15T02:46:30.696Z,101157.94
2023-04-15T02:51:52.653Z,101167.34
2023-04-15T02:57:15.992Z,101153.72
2023-04-15T03:02:38.976Z,101155.44
2023-04-15T03:08:01.394Z,101152.91
2023-04-15T03:13:24.496Z,101151.19
2023-04-15T03:18:46.394Z,101157.16
2023-04-15T03:24:09.620Z,101149.53
2023-04-15T03:29:31.672Z,101145.28
2023-04-15T03:34:54.485Z,101152.06
2023-04-15T03:40:21.673Z,101140.13
2023-04-15T03:45:43.237Z,101151.19
2023-04-15T03:51:05.214Z,101149.50
2023-04-15T03:56:26.990Z,101152.94
2023-04-15T04:01:49.483Z,101147.88
2023-04-15T04:07:18.434Z,101150.44
2023-04-15T04:12:40.175Z,101162.41
2023-04-15T04:18:02.135Z,101159.84
2023-04-15T04:23:24.371Z,101161.59
2023-04-15T04:28:46.041Z,101168.38
2023-04-15T04:34:07.848Z,101172.69
2023-04-15T04:39:29.499Z,101177.75
2023-04-15T04:44:51.568Z,101180.31
2023-04-15T04:50:14.410Z,101182.84
2023-04-15T04:55:39.011Z,101176.03
2023-04-15T05:01:00.838Z,101178.56
2023-04-15T05:06:22.626Z,101183.69
2023-04-15T05:11:44.625Z,101181.13
2023-04-15T05:17:06.652Z,101183.63
2023-04-15T05:22:28.437Z,101187.03
2023-04-15T05:27:50.628Z,101184.47
2023-04-15T05:33:12.463Z,101193.00
2023-04-15T05:38:34.579Z,101189.63
2023-04-15T05:43:56.709Z,101189.63
2023-04-15T05:49:18.419Z,101193.94
2023-04-15T05:54:40.400Z,101209.31
2023-04-15T06:00:02.232Z,101213.56
2023-04-15T06:05:31.545Z,101218.66
2023-04-15T06:10:53.508Z,101218.66
2023-04-15T06:16:15.455Z,101234.84
2023-04-15T06:21:37.486Z,101229.69
2023-04-15T06:26:59.257Z,101240.75
2023-04-15T06:32:21.404Z,101233.06
2023-04-15T06:37:43.648Z,101238.22
2023-04-15T06:43:05.476Z,101239.06
2023-04-15T06:48:27.564Z,101246.75
2023-04-15T06:53:49.462Z,101244.16
2023-04-15T06:59:11.045Z,101245.00
2023-04-15T07:04:32.854Z,101251.00
2023-04-15T07:09:54.714Z,101249.31
2023-04-15T07:15:19.978Z,101255.31
2023-04-15T07:20:41.923Z,101256.19
2023-04-15T07:26:04.042Z,101263.03
2023-04-15T07:31:26.432Z,101270.75
2023-04-15T07:36:51.928Z,101275.84
2023-04-15T07:42:14.059Z,101281.81
2023-04-15T07:47:35.720Z,101279.22
2023-04-15T07:52:57.673Z,101282.59
2023-04-15T07:58:19.264Z,101286.75
2023-04-15T08:03:41.382Z,101288.44
2023-04-15T08:09:03.881Z,101300.44
2023-04-15T08:14:25.915Z,101301.28
2023-04-15T08:19:48.341Z,101296.16
2023-04-15T08:25:10.451Z,101296.91
2023-04-15T08:30:32.396Z,101307.16
2023-04-15T08:35:54.518Z,101308.06
2023-04-15T08:41:23.771Z,101305.50
2023-04-15T08:46:46.179Z,101306.31
2023-04-15T08:52:09.360Z,101310.56
2023-04-15T08:57:32.083Z,101315.69
2023-04-15T09:02:55.587Z,101322.50
2023-04-15T09:08:17.723Z,101328.44
2023-04-15T09:13:39.942Z,101332.69
2023-04-15T09:19:21.560Z,101344.59
2023-04-15T09:24:43.553Z,101353.94
2023-04-15T09:30:08.824Z,101339.38
2023-04-15T09:35:30.900Z,101346.19
2023-04-15T09:40:53.056Z,101348.69
2023-04-15T09:46:14.737Z,101362.06
2023-04-15T09:51:36.588Z,101362.84
2023-04-15T09:57:08.978Z,101375.66
2023-04-15T10:02:32.110Z,101376.56
2023-04-15T10:07:54.359Z,101376.72
2023-04-15T10:13:20.480Z,101378.19
2023-04-15T10:18:45.869Z,101385.25
2023-04-15T10:24:08.564Z,101389.50
2023-04-15T10:29:30.654Z,101398.13
2023-04-15T10:34:54.664Z,101395.53
2023-04-15T10:40:27.306Z,101402.41
2023-04-15T10:45:49.007Z,101396.38
2023-04-15T10:51:13.977Z,101402.38
2023-04-15T10:56:36.293Z,101411.72
2023-04-15T11:02:03.140Z,101415.13
2023-04-15T11:07:35.216Z,101407.41
2023-04-15T11:12:59.470Z,101414.22
2023-04-15T11:18:26.579Z,101426.94
2023-04-15T11:23:48.038Z,101436.03
2023-04-15T11:29:18.011Z,101429.97
2023-04-15T11:34:39.809Z,101428.16
2023-04-15T11:40:03.752Z,101427.25
2023-04-15T11:45:25.699Z,101440.75
2023-04-15T11:50:53.754Z,101439.75
2023-04-15T11:56:22.903Z,101445.53
2023-04-15T12:01:44.096Z,101449.41
2023-04-15T12:07:06.823Z,101451.75
2023-04-15T12:12:30.851Z,101463.56
2023-04-15T12:17:55.061Z,101462.47
2023-04-15T12:23:19.736Z,101472.66
2023-04-15T12:28:41.529Z,101481.91
2023-04-15T12:34:03.477Z,101483.53
2023-04-15T12:39:30.701Z,101487.47
2023-04-15T12:44:51.653Z,101489.03
2023-04-15T12:58:11.656Z,101496.78
2023-04-15T13:03:32.437Z,101503.19
2023-04-15T13:08:58.412Z,101497.59
2023-04-15T13:14:19.292Z,101498.88
2023-04-15T13:19:39.950Z,101511.91
2023-04-15T13:25:00.479Z,101515.22
2023-04-15T13:30:20.883Z,101529.00
2023-04-15T13:35:41.528Z,101524.09
2023-04-15T13:41:02.021Z,101525.91
2023-04-15T13:46:22.404Z,101530.84
2023-04-15T13:51:42.710Z,101539.75
2023-04-15T13:57:03.435Z,101544.53
2023-04-15T14:02:24.316Z,101548.06
2023-04-15T14:07:44.985Z,101557.25
2023-04-15T14:13:06.231Z,101569.94
2023-04-15T14:18:27.328Z,101561.03
2023-04-15T14:23:48.287Z,101570.94
2023-04-15T14:29:08.782Z,101567.78
2023-04-15T14:34:29.502Z,101589.69
2023-04-15T14:39:50.479Z,101579.88
2023-04-15T14:45:11.228Z,101591.44
2023-04-15T14:50:31.879Z,101600.25
2023-04-15T14:55:52.645Z,101592.31
2023-04-15T15:01:13.074Z,101598.53
2023-04-15T15:06:34.472Z,101602.66
2023-04-15T15:11:54.862Z,101610.78
2023-04-15T15:17:15.403Z,101619.25
2023-04-15T15:22:36.051Z,101622.97
2023-04-15T15:27:57.750Z,101626.03
2023-04-15T15:33:18.213Z,101625.09
2023-04-15T15:38:40.570Z,101624.00
2023-04-15T15:44:01.103Z,101639.53
2023-04-15T15:49:21.510Z,101653.78
2023-04-15T15:54:42.260Z,101658.22
2023-04-15T16:05:26.960Z,101662.78
2023-04-15T16:10:47.835Z,101677.97
2023-04-15T16:16:08.332Z,101689.56
2023-04-15T16:21:28.938Z,101692.47
2023-04-15T16:26:49.895Z,101691.13
2023-04-15T16:32:11.081Z,101695.91
2023-04-15T16:37:33.103Z,101700.19
2023-04-15T16:42:54.028Z,101694.81
2023-04-15T16:48:14.359Z,101702.56
2023-04-15T16:53:34.889Z,101704.72
2023-04-15T16:58:55.822Z,101708.56
2023-04-15T17:04:16.480Z,101720.38
2023-04-15T17:09:39.177Z,101725.28
2023-04-15T17:15:05.761Z,101730.22
2023-04-15T17:20:26.660Z,101746.72
2023-04-15T17:25:47.777Z,101744.31
2023-04-15T17:31:08.837Z,101746.25
2023-04-15T17:36:51.305Z,101749.19
2023-04-15T17:42:31.789Z,101751.84
2023-04-15T17:48:13.243Z,101757.41
2023-04-15T17:53:53.805Z,101767.94
2023-04-15T17:59:35.069Z,101770.66
2023-04-15T18:05:16.153Z,101784.25
2023-04-15T18:10:56.759Z,101789.16
2023-04-15T18:16:37.092Z,101812.47
2023-04-15T18:22:17.949Z,101807.66
2023-04-15T18:27:41.586Z,101818.66
2023-04-15T18:33:02.549Z,101826.69
2023-04-15T18:38:23.786Z,101829.50
2023-04-15T18:43:44.375Z,101845.91
2023-04-15T18:49:05.032Z,101852.91
2023-04-15T18:54:25.568Z,101862.53
2023-04-15T18:59:46.472Z,101876.50
2023-04-15T19:05:07.185Z,101871.41
2023-04-15T19:10:30.525Z,101885.91
2023-04-15T19:15:51.803Z,101889.50
2023-04-15T19:21:12.994Z,101892.88
2023-04-15T19:26:33.752Z,101898.22
2023-04-15T19:31:55.018Z,101895.72
2023-04-15T19:37:16.100Z,101908.03
2023-04-15T19:42:36.762Z,101917.72
2023-04-15T19:47:57.930Z,101928.13
2023-04-15T19:53:18.029Z,101936.75
2023-04-15T19:58:38.730Z,101940.19
2023-04-15T20:03:59.655Z,101943.63
2023-04-15T20:09:20.386Z,101947.94
2023-04-15T20:14:41.501Z,101950.63
2023-04-15T20:20:03.955Z,101951.53
2023-04-15T20:25:24.561Z,101952.41
2023-04-15T20:30:45.862Z,101964.59
2023-04-15T20:36:06.972Z,101967.16
2023-04-15T20:41:28.028Z,101971.47
2023-04-15T20:46:48.499Z,101970.66
2023-04-15T20:52:09.930Z,101968.19
2023-04-15T20:57:30.402Z,101976.00
2023-04-15T21:02:52.834Z,101971.72
2023-04-15T21:08:51.126Z,101979.53
2023-04-15T21:14:27.734Z,101981.28
2023-04-15T21:20:07.895Z,101982.22
2023-04-15T21:25:31.208Z,101980.63
2023-04-15T21:30:54.045Z,101975.53
2023-04-15T21:36:15.159Z,101985.09
2023-04-15T21:41:36.981Z,101984.28
2023-04-15T21:46:57.528Z,101991.31
2023-04-15T21:52:18.200Z,101990.53
2023-04-15T21:57:38.744Z,101995.72
2023-04-15T22:03:02.767Z,101994.88
2023-04-15T22:08:24.158Z,101995.72
2023-04-15T22:13:45.401Z,102002.63
2023-04-15T22:19:06.384Z,102003.47
2023-04-15T22:24:38.053Z,102018.13
2023-04-15T22:30:01.222Z,102025.03
2023-04-15T22:35:21.973Z,102029.41
2023-04-15T22:40:42.707Z,102038.06
2023-04-15T22:46:03.150Z,102038.94
2023-04-15T22:51:26.804Z,102034.69
2023-04-15T22:56:47.320Z,102038.13
2023-04-15T23:02:07.982Z,102045.00
2023-04-15T23:07:29.127Z,102044.94
2023-04-15T23:12:49.526Z,102049.28
2023-04-15T23:18:10.435Z,102059.63
2023-04-15T23:23:31.200Z,102063.97
2023-04-15T23:28:51.863Z,102067.41
2023-04-15T23:34:12.475Z,102068.28
2023-04-15T23:39:33.082Z,102070.88
2023-04-15T23:44:53.408Z,102066.59
2023-04-15T23:50:15.250Z,102069.22
2023-04-15T23:55:36.220Z,102058.06
